createdAt,value
2023-01-22T00:01:17.211Z,55.25
2023-01-22T00:03:47.391Z,52.28
2023-01-22T00:06:17.947Z,41.40
2023-01-22T00:08:48.426Z,52.55
2023-01-22T00:11:19.890Z,50.85
2023-01-22T00:13:49.907Z,52.38
2023-01-22T00:16:20.589Z,49.28
2023-01-22T00:18:50.499Z,42.20
2023-01-22T00:21:20.393Z,43.35
2023-01-22T00:23:50.280Z,45.95
2023-01-22T00:26:20.817Z,44.78
2023-01-22T00:28:50.730Z,41.88
2023-01-22T00:31:21.776Z,45.15
2023-01-22T00:33:51.657Z,43.10
2023-01-22T00:36:23.755Z,49.45
2023-01-22T00:38:53.891Z,53.42
2023-01-22T00:41:24.180Z,49.15
2023-01-22T00:43:53.959Z,53.33
2023-01-22T00:46:23.952Z,61.88
2023-01-22T00:48:53.795Z,63.03
2023-01-22T00:51:23.541Z,54.80
2023-01-22T00:53:53.479Z,54.63
2023-01-22T00:56:23.268Z,59.30
2023-01-22T00:58:52.966Z,57.30
2023-01-22T01:01:22.908Z,59.33
2023-01-22T01:03:52.657Z,59.70
2023-01-22T01:06:24.306Z,58.45
2023-01-22T01:08:53.978Z,67.78
2023-01-22T01:11:27.896Z,64.20
2023-01-22T01:13:57.739Z,60.20
2023-01-22T01:16:31.457Z,59.92
2023-01-22T01:19:06.994Z,59.38
2023-01-22T01:21:37.185Z,55.70
2023-01-22T01:24:07.302Z,52.55
2023-01-22T01:26:37.487Z,54.55
2023-01-22T01:29:09.754Z,50.22
2023-01-22T01:31:41.264Z,48.95
2023-01-22T01:34:11.150Z,52.08
2023-01-22T01:36:48.613Z,48.17
2023-01-22T01:39:19.130Z,42.42
2023-01-22T01:41:48.921Z,37.50
2023-01-22T01:44:21.291Z,41.53
2023-01-22T01:46:56.309Z,40.50
2023-01-22T01:49:32.253Z,42.38
2023-01-22T01:52:08.629Z,35.45
2023-01-22T01:54:39.144Z,38.97
2023-01-22T01:57:20.319Z,38.50
2023-01-22T01:59:51.937Z,33.88
2023-01-22T02:02:22.750Z,37.92
2023-01-22T02:04:55.159Z,36.72
2023-01-22T02:07:25.283Z,39.72
2023-01-22T02:09:55.064Z,41.10
2023-01-22T02:12:25.069Z,50.17
2023-01-22T02:14:55.447Z,39.70
2023-01-22T02:17:25.505Z,44.65
2023-01-22T02:19:55.393Z,43.15
2023-01-22T02:22:32.242Z,45.67
2023-01-22T02:25:02.381Z,42.90
2023-01-22T02:27:32.448Z,49.30
2023-01-22T02:30:02.457Z,50.58
2023-01-22T02:32:32.886Z,41.35
2023-01-22T02:35:02.672Z,48.80
2023-01-22T02:37:32.579Z,46.13
2023-01-22T02:40:02.421Z,52.70
2023-01-22T02:42:32.192Z,50.55
2023-01-22T02:45:01.922Z,65.82
2023-01-22T02:47:31.896Z,49.00
2023-01-22T02:50:01.599Z,51.28
2023-01-22T02:52:31.504Z,49.78
2023-01-22T02:55:01.608Z,60.33
2023-01-22T02:57:33.651Z,52.20
2023-01-22T03:00:03.652Z,49.25
2023-01-22T03:02:33.719Z,56.53
2023-01-22T03:05:06.715Z,56.47
2023-01-22T03:07:45.201Z,54.50
2023-01-22T03:10:18.480Z,65.43
2023-01-22T03:13:09.507Z,61.00
2023-01-22T03:16:01.116Z,59.38
2023-01-22T03:18:50.617Z,56.05
2023-01-22T03:21:21.986Z,53.85
2023-01-22T03:23:56.875Z,59.10
2023-01-22T03:26:27.061Z,59.55
2023-01-22T03:28:57.128Z,65.57
2023-01-22T03:31:27.193Z,61.00
2023-01-22T03:33:57.871Z,49.78
2023-01-22T03:36:28.057Z,50.53
2023-01-22T03:38:58.017Z,52.58
2023-01-22T03:41:27.842Z,45.28
2023-01-22T03:43:57.598Z,47.75
2023-01-22T03:46:27.531Z,47.97
2023-01-22T03:48:57.648Z,45.15
2023-01-22T03:51:27.672Z,45.95
2023-01-22T03:53:57.481Z,45.05
2023-01-22T03:56:27.531Z,52.85
2023-01-22T03:58:58.141Z,40.38
2023-01-22T04:01:30.617Z,37.20
2023-01-22T04:04:00.381Z,37.72
2023-01-22T04:06:32.384Z,37.08
2023-01-22T04:09:02.127Z,38.15
2023-01-22T04:11:32.045Z,34.97
2023-01-22T04:14:01.995Z,35.97
2023-01-22T04:16:31.937Z,37.67
2023-01-22T04:19:01.902Z,33.15
2023-01-22T04:21:31.647Z,40.22
2023-01-22T04:24:01.476Z,37.03
2023-01-22T04:26:31.510Z,39.35
2023-01-22T04:29:01.633Z,38.20
2023-01-22T04:31:31.798Z,40.30
2023-01-22T04:34:02.436Z,35.75
2023-01-22T04:36:32.209Z,34.17
2023-01-22T04:39:01.968Z,31.80
2023-01-22T04:41:31.814Z,31.45
2023-01-22T04:44:01.451Z,32.45
2023-01-22T04:46:31.620Z,30.52
2023-01-22T04:49:01.556Z,35.38
2023-01-22T04:51:31.449Z,34.13
2023-01-22T04:54:01.353Z,29.13
2023-01-22T04:56:31.187Z,33.05
2023-01-22T04:59:00.932Z,29.15
2023-01-22T05:01:31.040Z,28.88
2023-01-22T05:04:04.180Z,27.98
2023-01-22T05:06:34.245Z,30.35
2023-01-22T05:09:04.090Z,28.52
2023-01-22T05:11:34.071Z,27.55
2023-01-22T05:14:04.043Z,30.33
2023-01-22T05:16:33.866Z,30.88
2023-01-22T05:19:03.741Z,26.25
2023-01-22T05:21:33.628Z,29.15
2023-01-22T05:24:03.382Z,32.78
2023-01-22T05:26:33.243Z,33.47
2023-01-22T05:29:03.396Z,30.60
2023-01-22T05:31:33.799Z,31.27
2023-01-22T05:34:04.754Z,35.63
2023-01-22T05:36:34.776Z,33.88
2023-01-22T05:39:04.611Z,31.05
2023-01-22T05:41:34.580Z,31.33
2023-01-22T05:44:05.526Z,25.25
2023-01-22T05:46:35.666Z,27.95
2023-01-22T05:49:05.657Z,33.55
2023-01-22T05:51:36.735Z,35.75
2023-01-22T05:54:06.762Z,27.05
2023-01-22T05:56:36.719Z,30.63
2023-01-22T05:59:06.646Z,36.00
2023-01-22T06:01:36.389Z,26.65
2023-01-22T06:04:06.300Z,30.05
2023-01-22T06:06:36.352Z,34.72
2023-01-22T06:09:06.798Z,27.20
2023-01-22T06:11:36.587Z,26.95
2023-01-22T06:14:06.943Z,31.50
2023-01-22T06:16:37.150Z,29.10
2023-01-22T06:19:07.177Z,24.67
2023-01-22T06:21:36.956Z,29.33
2023-01-22T06:24:07.116Z,27.70
2023-01-22T06:26:37.036Z,24.70
2023-01-22T06:29:07.162Z,25.42
2023-01-22T06:31:37.156Z,26.70
2023-01-22T06:34:11.956Z,27.90
2023-01-22T06:36:43.579Z,36.15
2023-01-22T06:39:13.530Z,24.90
2023-01-22T06:41:43.646Z,28.77
2023-01-22T06:44:13.423Z,28.42
2023-01-22T06:46:43.307Z,28.25
2023-01-22T06:49:14.328Z,24.40
2023-01-22T06:51:44.699Z,22.77
2023-01-22T06:54:15.077Z,25.08
2023-01-22T06:56:44.978Z,25.75
2023-01-22T06:59:14.769Z,25.25
2023-01-22T07:01:44.725Z,28.50
2023-01-22T07:04:14.484Z,27.00
2023-01-22T07:06:44.365Z,24.67
2023-01-22T07:09:14.331Z,19.55
2023-01-22T07:11:46.796Z,21.60
2023-01-22T07:14:19.646Z,23.52
2023-01-22T07:16:53.352Z,21.08
2023-01-22T07:19:23.225Z,22.77
2023-01-22T07:21:53.197Z,20.60
2023-01-22T07:24:22.787Z,23.75
2023-01-22T07:26:52.723Z,19.75
2023-01-22T07:29:22.760Z,21.33
2023-01-22T07:31:52.578Z,24.25
2023-01-22T07:34:23.252Z,22.15
2023-01-22T07:36:53.108Z,20.20
2023-01-22T07:39:22.796Z,20.92
2023-01-22T07:41:52.603Z,24.10
2023-01-22T07:44:22.544Z,19.30
2023-01-22T07:46:52.421Z,19.42
2023-01-22T07:49:22.134Z,18.27
2023-01-22T07:51:52.112Z,19.83
2023-01-22T07:54:21.886Z,19.58
2023-01-22T07:56:51.885Z,18.65
2023-01-22T07:59:21.802Z,27.38
2023-01-22T08:01:51.652Z,17.80
2023-01-22T08:04:21.557Z,21.85
2023-01-22T08:06:51.412Z,18.73
2023-01-22T08:09:26.697Z,22.25
2023-01-22T08:11:56.634Z,21.30
2023-01-22T08:14:26.274Z,22.15
2023-01-22T08:16:56.113Z,19.15
2023-01-22T08:19:26.122Z,22.60
2023-01-22T08:21:55.746Z,20.67
2023-01-22T08:24:25.924Z,19.50
2023-01-22T08:26:58.023Z,18.67
2023-01-22T08:29:28.029Z,17.90
2023-01-22T08:31:57.870Z,22.40
2023-01-22T08:34:28.648Z,15.52
2023-01-22T08:36:58.590Z,18.60
2023-01-22T08:39:28.418Z,17.05
2023-01-22T08:42:01.208Z,16.35
2023-01-22T08:44:31.035Z,14.48
2023-01-22T08:47:00.825Z,17.40
2023-01-22T08:49:32.367Z,18.95
2023-01-22T08:52:02.106Z,15.60
2023-01-22T08:54:31.856Z,20.02
2023-01-22T08:57:01.850Z,15.63
2023-01-22T08:59:31.646Z,18.80
2023-01-22T09:02:04.787Z,18.88
2023-01-22T09:04:34.803Z,16.30
2023-01-22T09:07:04.641Z,16.05
2023-01-22T09:09:34.575Z,15.13
2023-01-22T09:12:04.451Z,15.57
2023-01-22T09:14:34.372Z,15.13
2023-01-22T09:17:04.485Z,16.10
2023-01-22T09:19:34.404Z,16.60
2023-01-22T09:22:08.348Z,18.00
2023-01-22T09:24:38.276Z,16.40
2023-01-22T09:27:08.046Z,16.33
2023-01-22T09:29:38.294Z,16.25
2023-01-22T09:32:08.408Z,14.60
2023-01-22T09:34:38.944Z,14.48
2023-01-22T09:37:09.685Z,19.40
2023-01-22T09:39:39.606Z,16.55
2023-01-22T09:42:14.668Z,14.07
2023-01-22T09:44:49.898Z,15.77
2023-01-22T09:47:28.234Z,18.70
2023-01-22T09:50:24.998Z,13.38
2023-01-22T09:52:58.993Z,16.20
2023-01-22T09:55:33.414Z,14.50
2023-01-22T09:58:07.394Z,14.38
2023-01-22T10:00:46.681Z,15.07
2023-01-22T10:03:30.724Z,14.75
2023-01-22T10:06:06.456Z,15.45
2023-01-22T10:08:42.235Z,16.13
2023-01-22T10:11:12.980Z,14.43
2023-01-22T10:13:42.985Z,15.35
2023-01-22T10:16:14.748Z,17.33
2023-01-22T10:19:07.826Z,18.88
2023-01-22T10:21:48.928Z,19.08
2023-01-22T10:24:18.873Z,13.63
2023-01-22T10:26:56.176Z,17.48
2023-01-22T10:29:34.940Z,13.60
2023-01-22T10:32:18.011Z,18.92
2023-01-22T10:35:01.904Z,24.38
2023-01-22T10:37:31.888Z,18.20
2023-01-22T10:40:02.823Z,26.33
2023-01-22T10:42:32.888Z,34.08
2023-01-22T10:45:18.081Z,16.65
2023-01-22T10:47:47.937Z,13.35
2023-01-22T10:50:21.503Z,17.05
2023-01-22T10:52:56.684Z,21.77
2023-01-22T10:55:37.449Z,17.27
2023-01-22T10:58:16.476Z,20.80
2023-01-22T11:00:52.278Z,15.50
2023-01-22T11:03:38.551Z,23.42
2023-01-22T11:06:16.261Z,37.50
2023-01-22T11:09:11.463Z,21.50
2023-01-22T11:11:46.428Z,76.68
2023-01-22T11:14:37.813Z,68.40
2023-01-22T11:17:24.757Z,29.92
2023-01-22T11:20:07.547Z,28.20
2023-01-22T11:22:41.804Z,27.25
2023-01-22T11:25:14.040Z,22.30
2023-01-22T11:28:22.959Z,17.67
2023-01-22T11:31:28.051Z,16.27
2023-01-22T11:34:37.225Z,19.50
2023-01-22T11:37:23.733Z,17.83
2023-01-22T11:40:21.879Z,18.15
2023-01-22T11:43:22.443Z,23.95
2023-01-22T11:46:28.529Z,19.52
2023-01-22T11:49:37.367Z,22.55
2023-01-22T11:52:46.278Z,19.20
2023-01-22T11:55:46.127Z,18.15
2023-01-22T11:58:55.039Z,18.75
2023-01-22T12:01:47.657Z,16.77
2023-01-22T12:04:53.263Z,18.13
2023-01-22T12:08:02.221Z,16.75
2023-01-22T12:10:57.037Z,19.50
2023-01-22T12:14:06.051Z,23.33
2023-01-22T12:17:02.371Z,38.22
2023-01-22T12:20:10.059Z,31.58
2023-01-22T12:25:48.611Z,43.10
2023-01-22T12:28:38.419Z,23.70
2023-01-22T12:31:32.084Z,34.97
2023-01-22T12:34:06.280Z,39.88
2023-01-22T12:36:37.030Z,36.35
2023-01-22T12:39:34.236Z,29.73
2023-01-22T12:42:39.512Z,37.20
2023-01-22T12:45:40.769Z,39.60
2023-01-22T12:48:41.072Z,40.25
2023-01-22T12:51:37.751Z,35.38
2023-01-22T12:54:40.213Z,29.30
2023-01-22T12:57:40.605Z,28.90
2023-01-22T13:00:33.478Z,36.67
2023-01-22T13:03:05.875Z,32.50
2023-01-22T13:05:41.741Z,36.45
2023-01-22T13:08:39.058Z,28.75
2023-01-22T13:11:15.886Z,24.20
2023-01-22T13:13:56.591Z,33.03
2023-01-22T13:16:35.768Z,35.08
2023-01-22T13:19:22.761Z,30.93
2023-01-22T13:21:53.249Z,35.92
2023-01-22T13:24:23.866Z,35.08
2023-01-22T13:27:02.216Z,31.95
2023-01-22T13:29:37.988Z,36.33
2023-01-22T13:32:21.584Z,36.90
2023-01-22T13:34:51.569Z,29.98
2023-01-22T13:37:26.734Z,30.48
2023-01-22T13:39:57.481Z,43.10
2023-01-22T13:42:29.144Z,44.22
2023-01-22T13:44:59.667Z,32.10
2023-01-22T13:47:33.747Z,61.47
2023-01-22T13:50:04.653Z,60.15
2023-01-22T13:52:35.359Z,90.00
2023-01-22T13:55:09.183Z,97.72
2023-01-22T13:57:38.971Z,50.95
2023-01-22T14:00:26.744Z,51.08
2023-01-22T14:02:57.090Z,53.03
2023-01-22T14:05:29.581Z,58.17
2023-01-22T14:08:14.784Z,38.35
2023-01-22T14:10:45.259Z,43.00
2023-01-22T14:13:17.536Z,47.60
2023-01-22T14:16:01.601Z,45.42
2023-01-22T14:18:31.419Z,54.05
2023-01-22T14:21:01.444Z,42.08
2023-01-22T14:23:31.786Z,38.20
2023-01-22T14:26:05.927Z,45.40
2023-01-22T14:28:37.524Z,37.72
2023-01-22T14:31:07.471Z,52.45
2023-01-22T14:33:37.684Z,41.38
2023-01-22T14:36:07.919Z,42.33
2023-01-22T14:38:38.145Z,51.53
2023-01-22T14:41:09.715Z,48.45
2023-01-22T14:43:39.701Z,46.55
2023-01-22T14:46:10.657Z,44.67
2023-01-22T14:48:41.644Z,43.55
2023-01-22T14:51:13.400Z,44.60
2023-01-22T14:53:43.475Z,53.15
2023-01-22T14:56:13.255Z,44.08
2023-01-22T14:58:43.119Z,46.90
2023-01-22T15:01:21.914Z,43.05
2023-01-22T15:03:51.837Z,47.97
2023-01-22T15:06:22.000Z,42.65
2023-01-22T15:08:51.853Z,58.75
2023-01-22T15:11:21.711Z,80.13
2023-01-22T15:13:51.942Z,71.45
2023-01-22T15:16:22.639Z,67.57
2023-01-22T15:18:57.282Z,72.32
2023-01-22T15:21:27.362Z,97.05
2023-01-22T15:23:57.358Z,86.50
2023-01-22T15:26:30.186Z,89.20
2023-01-22T15:29:00.063Z,95.20
2023-01-22T15:31:30.086Z,74.57
2023-01-22T15:34:02.523Z,81.88
2023-01-22T15:36:33.491Z,83.43
2023-01-22T15:39:03.779Z,73.55
2023-01-22T15:41:36.865Z,69.78
2023-01-22T15:44:07.884Z,69.72
2023-01-22T15:46:40.527Z,57.80
2023-01-22T15:49:12.204Z,83.13
2023-01-22T15:51:43.401Z,82.88
2023-01-22T15:54:18.230Z,92.50
2023-01-22T15:56:48.022Z,81.78
2023-01-22T15:59:17.814Z,70.55
2023-01-22T16:01:47.714Z,58.60
2023-01-22T16:04:17.906Z,68.03
2023-01-22T16:06:47.686Z,74.57
2023-01-22T16:09:17.601Z,74.47
2023-01-22T16:11:47.606Z,69.55
2023-01-22T16:14:17.515Z,69.75
2023-01-22T16:16:47.625Z,77.10
2023-01-22T16:19:17.407Z,72.47
2023-01-22T16:21:49.104Z,73.68
2023-01-22T16:24:19.081Z,63.70
2023-01-22T16:26:48.906Z,63.38
2023-01-22T16:29:18.869Z,71.00
2023-01-22T16:31:48.749Z,72.85
2023-01-22T16:34:21.269Z,74.13
2023-01-22T16:36:51.179Z,64.78
2023-01-22T16:39:27.709Z,68.10
2023-01-22T16:41:58.790Z,67.10
2023-01-22T16:44:30.494Z,71.78
2023-01-22T16:47:02.367Z,70.68
2023-01-22T16:49:34.317Z,78.70
2023-01-22T16:52:21.341Z,65.95
2023-01-22T16:54:52.441Z,67.10
2023-01-22T16:57:22.310Z,70.00
2023-01-22T16:59:52.151Z,76.15
2023-01-22T17:02:24.988Z,73.53
2023-01-22T17:05:01.818Z,79.03
2023-01-22T17:07:34.807Z,68.07
2023-01-22T17:10:08.096Z,79.22
2023-01-22T17:12:39.108Z,71.57
2023-01-22T17:15:09.692Z,83.05
2023-01-22T17:17:42.696Z,62.83
2023-01-22T17:20:13.363Z,58.67
2023-01-22T17:22:43.187Z,63.55
2023-01-22T17:25:13.196Z,57.50
2023-01-22T17:27:42.973Z,54.78
2023-01-22T17:30:13.382Z,68.65
2023-01-22T17:32:43.254Z,62.20
2023-01-22T17:35:13.361Z,56.08
2023-01-22T17:37:43.816Z,74.68
2023-01-22T17:40:14.466Z,74.55
2023-01-22T17:42:44.948Z,64.70
2023-01-22T17:45:14.910Z,57.03
2023-01-22T17:47:47.860Z,61.92
2023-01-22T17:50:18.125Z,58.80
2023-01-22T17:52:47.941Z,69.10
2023-01-22T17:55:18.150Z,63.13
2023-01-22T17:57:48.354Z,70.03
2023-01-22T18:00:19.353Z,60.00
2023-01-22T18:02:49.252Z,65.50
2023-01-22T18:05:19.378Z,62.95
2023-01-22T18:07:49.391Z,65.05
2023-01-22T18:10:19.762Z,75.82
2023-01-22T18:12:50.854Z,69.07
2023-01-22T18:15:21.046Z,64.05
2023-01-22T18:17:51.322Z,71.07
2023-01-22T18:20:21.295Z,66.63
2023-01-22T18:22:51.034Z,57.35
2023-01-22T18:25:21.065Z,62.03
2023-01-22T18:27:51.545Z,55.97
2023-01-22T18:30:22.340Z,60.35
2023-01-22T18:32:52.179Z,56.38
2023-01-22T18:35:22.135Z,57.38
2023-01-22T18:37:53.945Z,66.30
2023-01-22T18:40:23.876Z,54.97
2023-01-22T18:42:54.464Z,56.45
2023-01-22T18:45:24.282Z,60.85
2023-01-22T18:47:55.489Z,53.72
2023-01-22T18:50:25.542Z,57.25
2023-01-22T18:52:55.355Z,64.18
2023-01-22T18:55:25.510Z,71.80
2023-01-22T18:57:58.714Z,58.03
2023-01-22T19:00:28.462Z,63.85
2023-01-22T19:02:59.894Z,64.75
2023-01-22T19:05:30.650Z,56.03
2023-01-22T19:08:00.407Z,55.05
2023-01-22T19:10:30.067Z,54.47
2023-01-22T19:12:59.962Z,51.25
2023-01-22T19:15:29.942Z,49.72
2023-01-22T19:17:59.705Z,54.92
2023-01-22T19:20:29.933Z,58.25
2023-01-22T19:23:02.005Z,54.28
2023-01-22T19:25:32.464Z,48.55
2023-01-22T19:28:02.377Z,48.15
2023-01-22T19:30:32.326Z,52.88
2023-01-22T19:33:02.804Z,51.20
2023-01-22T19:35:32.559Z,52.28
2023-01-22T19:38:02.501Z,50.42
2023-01-22T19:40:32.755Z,55.67
2023-01-22T19:43:03.202Z,43.03
2023-01-22T19:45:32.937Z,50.30
2023-01-22T19:48:02.654Z,48.28
2023-01-22T19:50:32.476Z,47.38
2023-01-22T19:53:02.563Z,44.90
2023-01-22T19:55:32.573Z,51.55
2023-01-22T19:58:02.271Z,43.53
2023-01-22T20:00:32.040Z,48.03
2023-01-22T20:03:03.153Z,47.00
2023-01-22T20:05:32.912Z,52.38
2023-01-22T20:08:02.655Z,41.63
2023-01-22T20:10:34.645Z,52.60
2023-01-22T20:13:04.387Z,52.38
2023-01-22T20:15:42.547Z,55.80
2023-01-22T20:18:12.666Z,52.58
2023-01-22T20:20:42.577Z,45.78
2023-01-22T20:23:12.426Z,47.00
2023-01-22T20:25:42.142Z,45.05
2023-01-22T20:28:14.487Z,45.13
2023-01-22T20:30:44.643Z,42.15
2023-01-22T20:33:14.491Z,45.42
2023-01-22T20:35:48.106Z,43.45
2023-01-22T20:38:17.914Z,42.65
2023-01-22T20:40:49.167Z,44.17
2023-01-22T20:43:21.620Z,45.58
2023-01-22T20:46:22.058Z,43.05
2023-01-22T20:48:52.844Z,41.17
2023-01-22T20:51:26.254Z,41.78
2023-01-22T20:53:57.752Z,46.50
2023-01-22T20:56:33.081Z,41.03
2023-01-22T20:59:18.975Z,43.42
2023-01-22T21:01:49.471Z,41.05
2023-01-22T21:04:20.173Z,46.83
2023-01-22T21:06:50.427Z,44.95
2023-01-22T21:09:20.200Z,37.78
2023-01-22T21:11:50.005Z,42.30
2023-01-22T21:14:22.119Z,41.35
2023-01-22T21:16:51.965Z,46.83
2023-01-22T21:19:31.145Z,46.97
2023-01-22T21:22:02.715Z,45.28
2023-01-22T21:24:33.155Z,44.75
2023-01-22T21:27:03.079Z,39.05
2023-01-22T21:29:32.860Z,41.92
2023-01-22T21:32:02.736Z,40.13
2023-01-22T21:34:34.080Z,40.78
2023-01-22T21:37:04.542Z,54.55
2023-01-22T21:39:34.476Z,44.95
2023-01-22T21:42:23.992Z,43.72
2023-01-22T21:45:15.247Z,39.33
2023-01-22T21:47:45.238Z,47.22
2023-01-22T21:50:15.195Z,40.78
2023-01-22T21:52:46.046Z,49.67
2023-01-22T21:55:17.320Z,40.63
2023-01-22T21:57:47.647Z,44.88
2023-01-22T22:00:18.886Z,46.72
2023-01-22T22:02:49.002Z,49.47
2023-01-22T22:05:19.026Z,46.50
2023-01-22T22:07:48.669Z,46.10
2023-01-22T22:10:19.661Z,49.35
2023-01-22T22:12:49.590Z,50.72
2023-01-22T22:15:19.490Z,45.83
2023-01-22T22:17:49.438Z,46.95
2023-01-22T22:20:19.965Z,44.03
2023-01-22T22:22:49.872Z,46.00
2023-01-22T22:25:19.832Z,44.60
2023-01-22T22:27:49.787Z,53.63
2023-01-22T22:30:20.044Z,44.53
2023-01-22T22:32:50.070Z,48.55
2023-01-22T22:35:20.071Z,47.65
2023-01-22T22:37:49.893Z,43.53
2023-01-22T22:40:21.148Z,41.83
2023-01-22T22:42:51.324Z,42.78
2023-01-22T22:45:22.049Z,40.88
2023-01-22T22:47:51.787Z,50.47
2023-01-22T22:50:21.963Z,38.05
2023-01-22T22:52:52.046Z,41.70
2023-01-22T22:55:21.963Z,49.30
2023-01-22T22:57:52.090Z,45.40
2023-01-22T23:00:22.261Z,50.63
2023-01-22T23:02:52.406Z,43.63
2023-01-22T23:05:22.136Z,54.47
2023-01-22T23:07:51.841Z,53.33
2023-01-22T23:10:30.926Z,50.08
2023-01-22T23:13:04.600Z,58.83
2023-01-22T23:15:35.668Z,53.08
2023-01-22T23:18:05.610Z,57.15
2023-01-22T23:20:36.643Z,56.50
2023-01-22T23:23:06.524Z,57.38
2023-01-22T23:25:36.338Z,50.65
2023-01-22T23:28:06.310Z,58.95
2023-01-22T23:30:37.531Z,55.53
2023-01-22T23:33:07.551Z,55.97
2023-01-22T23:35:37.496Z,49.75
2023-01-22T23:38:07.254Z,51.33
2023-01-22T23:40:37.260Z,53.72
2023-01-22T23:43:07.776Z,50.15
2023-01-22T23:45:42.048Z,52.42
2023-01-22T23:48:11.823Z,57.50
2023-01-22T23:50:41.688Z,55.53
2023-01-22T23:53:12.218Z,56.38
2023-01-22T23:55:41.887Z,62.47
2023-01-22T23:58:11.901Z,52.95
